Ilyas Araz — TCAS9 — position and weather

sailwx.info

Track history (hours):
 
Tides and Currents Weather Stations Pressure Air Temp Water Temp Dewpoint Dewpoint Depression Visibility Wind Speed Wind Dir Waves Ship Positions

Ilyas Araz

Last reported at 2015-Jan-31 20:27 UTC. Time now 2015-Feb-01 19:46 UTC.
Position N 40°56' E 029°03'.

Length 64 m; draft 5.4 m.

Type: Cargo ship. MMSI: 271002108.

Date/timePositionNaut miles runAvg speedWind from/ knotsBaromVisibWave heightAir tempDewpointWater temp
2015-Jan-31 20:27N 40°56' E 029°03'4 3.4
2015-Jan-31 19:18N 40°54' E 029°06'0 0.0
2015-Jan-31 16:24N 40°54' E 029°06'0 0.0
2015-Jan-31 14:18N 40°54' E 029°06'0 0.0
2015-Jan-31 13:18N 40°54' E 029°06'0 0.0
2015-Jan-31 12:18N 40°54' E 029°06'0 0.1
2015-Jan-31 10:24N 40°54' E 029°06'3 3.1
2015-Jan-31 09:30N 40°52' E 029°09'7 7.3
2015-Jan-31 08:29N 40°47' E 029°02'7 0.2
2015-Jan-29 23:20N 40°44' E 028°53'810.6
2015-Jan-29 22:33N 40°47' E 029°03'9 7.9
2015-Jan-29 21:26N 40°53' E 029°12'0 0.1
2015-Jan-29 20:32N 40°53' E 029°12'0 0.0
2015-Jan-29 19:32N 40°53' E 029°12'0 0.0
2015-Jan-29 18:26N 40°53' E 029°12'0 0.0
2015-Jan-29 17:26N 40°53' E 029°12'0 0.0
2015-Jan-29 16:32N 40°53' E 029°12'0 0.0
2015-Jan-29 15:20N 40°53' E 029°12'0 0.1
2015-Jan-29 14:32N 40°53' E 029°12'0 0.0
2015-Jan-29 13:32N 40°53' E 029°12'0 0.0
2015-Jan-29 12:32N 40°53' E 029°12'1 1.4
2015-Jan-29 11:33N 40°53' E 029°10'24 7.4
2015-Jan-29 08:19N 41°16' E 029°18'7 9.3
2015-Jan-29 07:33N 41°16' E 029°28'  
Track history (hours):
 
Tides and Currents Weather Stations Pressure Air Temp Water Temp Dewpoint Dewpoint Depression Visibility Wind Speed Wind Dir Waves Ship Positions

Ilyas Araz

Last reported at 2015-Jan-31 20:27 UTC. Time now 2015-Feb-01 19:46 UTC.
Position N 40°56' E 029°03'.

Length 64 m; draft 5.4 m.

Type: Cargo ship. MMSI: 271002108.

Date/timePositionNaut miles runAvg speedWind from/ knotsBaromVisibWave heightAir tempDewpointWater temp
2015-Jan-31 20:27N 40°56' E 029°03'4 3.4
2015-Jan-31 19:18N 40°54' E 029°06'0 0.0
2015-Jan-31 16:24N 40°54' E 029°06'0 0.0
2015-Jan-31 14:18N 40°54' E 029°06'0 0.0
2015-Jan-31 13:18N 40°54' E 029°06'0 0.0
2015-Jan-31 12:18N 40°54' E 029°06'0 0.1
2015-Jan-31 10:24N 40°54' E 029°06'3 3.1
2015-Jan-31 09:30N 40°52' E 029°09'7 7.3
2015-Jan-31 08:29N 40°47' E 029°02'7 0.2
2015-Jan-29 23:20N 40°44' E 028°53'810.6
2015-Jan-29 22:33N 40°47' E 029°03'9 7.9
2015-Jan-29 21:26N 40°53' E 029°12'0 0.1
2015-Jan-29 20:32N 40°53' E 029°12'0 0.0
2015-Jan-29 19:32N 40°53' E 029°12'0 0.0
2015-Jan-29 18:26N 40°53' E 029°12'0 0.0
2015-Jan-29 17:26N 40°53' E 029°12'0 0.0
2015-Jan-29 16:32N 40°53' E 029°12'0 0.0
2015-Jan-29 15:20N 40°53' E 029°12'0 0.1
2015-Jan-29 14:32N 40°53' E 029°12'0 0.0
2015-Jan-29 13:32N 40°53' E 029°12'0 0.0
2015-Jan-29 12:32N 40°53' E 029°12'1 1.4
2015-Jan-29 11:33N 40°53' E 029°10'24 7.4
2015-Jan-29 08:19N 41°16' E 029°18'7 9.3
2015-Jan-29 07:33N 41°16' E 029°28'  

Dump ship's entire track history